Time;durP1;ratioP1;P1;durP2;ratioP2;P2;SDS_P1;SDS_P2;PMS_P1;PMS_P2;Temp;Humidity;BMP_temperature;BMP_pressure;BME280_temperature;BME280_humidity;BME280_pressure;Samples;Min_cycle;Max_cycle;Signal;HPM_P1;HPM_P2
2022/07/22 00:01:19;;;;;;;6.15;1.52;;;18.00;97.30;;;;;;5052910;28;20029;-46
2022/07/22 00:03:45;;;;;;;9.40;2.00;;;18.10;97.80;;;;;;5053314;28;20075;-49
2022/07/22 00:06:11;;;;;;;7.10;1.70;;;18.00;97.40;;;;;;5052971;28;20108;-47
2022/07/22 00:08:36;;;;;;;7.72;1.85;;;18.00;97.40;;;;;;5053230;28;20040;-45
2022/07/22 00:11:03;;;;;;;7.15;1.70;;;18.10;97.50;;;;;;5048011;28;20021;-44
2022/07/22 00:13:29;;;;;;;9.18;2.00;;;18.00;97.40;;;;;;5044380;28;20037;-46
2022/07/22 00:15:54;;;;;;;8.20;1.90;;;18.10;97.50;;;;;;5052829;28;20090;-44
2022/07/22 00:18:20;;;;;;;6.85;1.75;;;18.00;97.60;;;;;;5052953;28;20021;-46
2022/07/22 00:20:45;;;;;;;6.63;1.50;;;18.10;97.60;;;;;;5050884;28;20021;-43
2022/07/22 00:23:11;;;;;;;9.23;1.92;;;18.10;97.70;;;;;;5051950;28;20020;-51
2022/07/22 00:25:37;;;;;;;5.85;1.80;;;18.00;97.80;;;;;;5052168;28;20109;-47
2022/07/22 00:28:03;;;;;;;6.78;1.50;;;18.10;97.60;;;;;;5052790;28;20040;-44
2022/07/22 00:30:29;;;;;;;8.77;1.85;;;18.00;97.60;;;;;;5048665;28;20479;-43
2022/07/22 00:32:55;;;;;;;6.88;1.98;;;18.00;97.70;;;;;;5052681;28;20025;-49
2022/07/22 00:35:21;;;;;;;5.63;1.80;;;18.00;97.60;;;;;;5052506;28;20029;-47
2022/07/22 00:37:46;;;;;;;8.75;1.88;;;18.00;97.70;;;;;;5052639;28;20033;-48
2022/07/22 00:40:12;;;;;;;8.15;1.75;;;17.90;97.80;;;;;;5046944;28;20065;-45
2022/07/22 00:42:38;;;;;;;9.02;1.77;;;17.90;97.90;;;;;;5050226;28;20132;-47
2022/07/22 00:45:05;;;;;;;5.72;1.70;;;18.00;98.00;;;;;;5050726;28;20033;-50
2022/07/22 00:47:30;;;;;;;10.82;1.80;;;18.00;98.00;;;;;;5052163;28;20083;-52
2022/07/22 00:49:56;;;;;;;7.57;2.30;;;18.00;98.10;;;;;;5051584;28;20511;-44
2022/07/22 00:52:23;;;;;;;6.07;1.98;;;18.00;97.90;;;;;;5051670;28;20064;-44
2022/07/22 00:54:49;;;;;;;14.23;3.05;;;17.90;97.90;;;;;;5041583;28;20108;-47
2022/07/22 00:57:15;;;;;;;7.15;1.83;;;17.90;98.00;;;;;;5051924;28;20552;-44
2022/07/22 00:59:42;;;;;;;7.53;1.83;;;17.90;98.00;;;;;;5051251;28;20107;-49
2022/07/22 01:02:08;;;;;;;6.70;1.63;;;17.80;98.00;;;;;;5052061;28;20021;-47
2022/07/22 01:04:34;;;;;;;6.15;1.95;;;17.80;98.00;;;;;;5051604;28;20123;-43
2022/07/22 01:07:00;;;;;;;4.90;1.38;;;17.80;98.10;;;;;;5052115;28;20028;-47
2022/07/22 01:09:26;;;;;;;4.93;1.55;;;17.80;98.10;;;;;;5051799;28;20029;-49
2022/07/22 01:11:51;;;;;;;7.13;1.70;;;17.70;98.20;;;;;;5051186;28;20019;-49
2022/07/22 01:14:17;;;;;;;5.13;1.38;;;17.60;98.20;;;;;;5064885;28;20039;-48
2022/07/22 01:16:43;;;;;;;6.22;1.65;;;17.60;98.30;;;;;;5072246;28;20059;-44
2022/07/22 01:19:09;;;;;;;6.80;1.55;;;17.70;98.40;;;;;;5090260;28;20550;-45
2022/07/22 01:21:35;;;;;;;4.93;1.45;;;17.60;98.40;;;;;;5069697;28;20059;-44
2022/07/22 01:24:02;;;;;;;5.25;1.58;;;17.70;98.40;;;;;;5071250;28;20422;-45
2022/07/22 01:26:27;;;;;;;4.03;1.77;;;17.60;98.30;;;;;;5071750;28;20035;-49
2022/07/22 01:28:53;;;;;;;5.03;1.42;;;17.60;98.40;;;;;;5071566;28;20016;-47
2022/07/22 01:31:19;;;;;;;5.97;1.60;;;17.70;98.00;;;;;;5071770;28;20085;-51
2022/07/22 01:33:45;;;;;;;5.70;1.70;;;17.60;98.10;;;;;;5071417;28;20471;-50
2022/07/22 01:36:11;;;;;;;7.15;1.70;;;17.60;98.20;;;;;;5071171;28;20033;-54
2022/07/22 01:38:37;;;;;;;7.55;1.70;;;17.60;98.20;;;;;;5071294;28;20126;-48
2022/07/22 01:41:03;;;;;;;7.07;1.50;;;17.60;98.20;;;;;;5070496;28;20027;-44
2022/07/22 01:43:28;;;;;;;6.30;1.42;;;17.60;98.20;;;;;;5059778;28;20442;-43
2022/07/22 01:45:55;;;;;;;6.75;1.70;;;17.60;98.20;;;;;;5067473;28;20064;-43
2022/07/22 01:48:21;;;;;;;12.43;2.00;;;17.60;98.50;;;;;;5070942;28;20088;-48
2022/07/22 01:50:47;;;;;;;8.85;1.63;;;17.50;98.30;;;;;;5071401;28;20056;-44
2022/07/22 01:53:13;;;;;;;5.97;1.25;;;17.50;98.50;;;;;;5070938;28;20044;-45
2022/07/22 01:55:39;;;;;;;5.32;1.30;;;17.50;98.50;;;;;;5071113;28;20052;-46
2022/07/22 01:58:05;;;;;;;6.40;1.45;;;17.50;98.50;;;;;;5070989;28;20032;-51
2022/07/22 02:00:33;;;;;;;8.05;1.55;;;17.40;98.60;;;;;;5071279;28;20101;-49
2022/07/22 02:02:58;;;;;;;5.45;1.80;;;17.40;98.60;;;;;;5070996;28;20090;-47
2022/07/22 02:05:24;;;;;;;8.48;1.70;;;17.40;98.60;;;;;;5071192;28;20055;-44
2022/07/22 02:07:50;;;;;;;8.73;1.48;;;17.40;98.70;;;;;;5071029;28;20126;-49
2022/07/22 02:10:16;;;;;;;4.63;1.40;;;17.50;98.80;;;;;;5068553;28;20029;-50
2022/07/22 02:12:42;;;;;;;9.57;1.90;;;17.40;98.60;;;;;;5060971;28;20032;-45
2022/07/22 02:15:08;;;;;;;7.35;1.60;;;17.40;98.60;;;;;;5067503;28;20392;-49
2022/07/22 02:17:35;;;;;;;6.35;1.38;;;17.50;98.70;;;;;;5070795;28;20024;-48
2022/07/22 02:20:02;;;;;;;6.85;1.50;;;17.40;98.70;;;;;;5070628;28;20043;-49
2022/07/22 02:22:28;;;;;;;5.60;1.83;;;17.40;98.70;;;;;;5070561;28;20021;-51
2022/07/22 02:24:54;;;;;;;6.20;1.80;;;17.40;99.00;;;;;;5070307;28;20074;-44
2022/07/22 02:27:20;;;;;;;5.95;1.63;;;17.50;98.90;;;;;;5070551;28;20119;-49
2022/07/22 02:29:46;;;;;;;4.28;1.58;;;17.30;98.90;;;;;;5070648;28;20020;-47
2022/07/22 02:32:12;;;;;;;8.52;1.77;;;17.40;99.30;;;;;;5069575;28;20032;-44
2022/07/22 02:34:37;;;;;;;7.85;1.50;;;17.30;99.00;;;;;;5069875;28;20055;-43
2022/07/22 02:37:03;;;;;;;6.03;1.58;;;17.30;99.10;;;;;;5069609;28;20075;-52
2022/07/22 02:39:29;;;;;;;7.20;1.50;;;17.30;99.10;;;;;;5069540;28;20054;-44
2022/07/22 02:41:55;;;;;;;5.53;1.67;;;17.30;99.10;;;;;;5070204;28;20031;-44
2022/07/22 02:44:20;;;;;;;5.30;1.60;;;17.30;99.10;;;;;;5076456;28;20032;-46
2022/07/22 02:46:46;;;;;;;8.50;1.52;;;17.30;99.20;;;;;;5074597;28;20020;-44
2022/07/22 02:49:12;;;;;;;8.63;1.73;;;17.30;99.20;;;;;;5079287;28;20364;-48
2022/07/22 02:51:37;;;;;;;3.55;1.30;;;17.40;99.20;;;;;;5074200;28;20058;-45
2022/07/22 02:54:05;;;;;;;6.93;1.67;;;17.40;99.10;;;;;;5074252;28;20025;-46
2022/07/22 02:56:31;;;;;;;10.48;1.60;;;17.40;99.00;;;;;;5074292;28;20024;-46
2022/07/22 02:58:57;;;;;;;8.38;1.35;;;17.40;99.00;;;;;;5074143;28;20056;-51
2022/07/22 03:01:22;;;;;;;5.85;1.73;;;17.40;99.00;;;;;;5055604;28;20056;-51
2022/07/22 03:03:48;;;;;;;6.90;1.42;;;17.30;99.10;;;;;;5074122;28;20024;-45
2022/07/22 03:06:14;;;;;;;5.60;1.23;;;17.30;99.20;;;;;;5073866;28;20497;-43
2022/07/22 03:08:40;;;;;;;6.40;1.42;;;17.30;98.90;;;;;;5073948;28;20024;-47
2022/07/22 03:11:06;;;;;;;10.30;1.63;;;17.40;99.00;;;;;;5072558;28;20035;-46
2022/07/22 03:13:32;;;;;;;7.57;1.50;;;17.30;99.00;;;;;;5059771;28;20032;-43
2022/07/22 03:15:57;;;;;;;6.65;1.65;;;17.30;99.00;;;;;;5073943;28;20419;-42
2022/07/22 03:18:23;;;;;;;5.18;1.60;;;17.30;98.90;;;;;;5073553;28;20032;-43
2022/07/22 03:20:49;;;;;;;8.43;1.95;;;17.30;98.80;;;;;;5073369;28;20780;-43
2022/07/22 03:23:15;;;;;;;6.63;1.58;;;17.30;98.90;;;;;;5073657;28;20052;-42
2022/07/22 03:25:40;;;;;;;7.07;1.73;;;17.20;98.90;;;;;;5073663;28;20028;-42
2022/07/22 03:28:06;;;;;;;9.00;1.77;;;17.20;98.90;;;;;;5073794;28;20459;-42
2022/07/22 03:30:32;;;;;;;9.23;2.53;;;17.20;99.00;;;;;;5073165;28;20058;-43
2022/07/22 03:32:58;;;;;;;8.18;1.40;;;17.20;99.00;;;;;;5073450;28;20017;-42
2022/07/22 03:35:24;;;;;;;5.13;1.45;;;17.10;99.00;;;;;;5073074;28;20086;-53
2022/07/22 03:37:49;;;;;;;6.75;1.58;;;17.10;98.90;;;;;;5055391;28;20074;-45
2022/07/22 03:40:16;;;;;;;5.95;1.50;;;17.10;98.90;;;;;;5072450;28;20039;-47
2022/07/22 03:42:41;;;;;;;4.72;1.38;;;17.10;99.10;;;;;;5072846;28;20020;-44
2022/07/22 03:45:08;;;;;;;6.80;1.73;;;17.10;99.10;;;;;;5073497;28;20070;-55
2022/07/22 03:47:34;;;;;;;6.38;1.33;;;17.00;99.20;;;;;;5073131;28;20078;-49
2022/07/22 03:50:01;;;;;;;12.05;1.73;;;17.00;99.20;;;;;;5073353;28;20036;-52
2022/07/22 03:52:28;;;;;;;5.93;1.60;;;17.00;99.30;;;;;;5073031;28;20426;-47
2022/07/22 03:54:54;;;;;;;7.82;1.52;;;17.00;99.40;;;;;;5073017;28;20086;-52
2022/07/22 03:57:20;;;;;;;5.57;1.25;;;17.00;99.50;;;;;;5071984;28;20503;-47
2022/07/22 03:59:46;;;;;;;6.88;1.80;;;16.90;99.60;;;;;;5073007;28;20029;-49
2022/07/22 04:02:12;;;;;;;9.65;1.63;;;16.90;99.50;;;;;;5073087;28;20387;-44
2022/07/22 04:04:37;;;;;;;8.63;1.98;;;16.90;99.60;;;;;;5072788;28;20017;-49
2022/07/22 04:07:03;;;;;;;6.97;1.60;;;16.90;99.60;;;;;;5072987;28;20035;-51
2022/07/22 04:09:29;;;;;;;6.53;1.83;;;16.80;99.70;;;;;;5054502;28;20033;-50
2022/07/22 04:11:55;;;;;;;11.88;1.80;;;16.80;99.70;;;;;;5042074;28;20044;-46
2022/07/22 04:14:20;;;;;;;9.38;1.80;;;16.90;99.90;;;;;;5057972;28;20033;-45
2022/07/22 04:16:46;;;;;;;7.30;1.90;;;16.80;99.90;;;;;;5072749;28;20383;-47
2022/07/22 04:19:12;;;;;;;4.40;1.30;;;16.80;99.70;;;;;;5072748;28;20021;-44
2022/07/22 04:21:38;;;;;;;5.50;1.70;;;16.80;99.80;;;;;;5072478;28;20503;-45
2022/07/22 04:24:04;;;;;;;6.53;1.45;;;16.80;99.90;;;;;;5072465;28;20063;-47
2022/07/22 04:26:30;;;;;;;7.35;1.52;;;16.80;99.90;;;;;;5072326;28;20079;-45
2022/07/22 04:28:56;;;;;;;3.42;1.35;;;16.80;99.90;;;;;;5072240;28;20020;-46
2022/07/22 04:31:22;;;;;;;6.03;1.95;;;16.70;99.90;;;;;;5072628;28;20070;-49
2022/07/22 04:33:47;;;;;;;5.43;1.48;;;16.80;99.90;;;;;;5072628;28;20058;-49
2022/07/22 04:36:13;;;;;;;7.30;1.48;;;16.80;99.90;;;;;;5072666;28;20037;-48
2022/07/22 04:38:39;;;;;;;4.53;1.30;;;16.80;99.90;;;;;;5072345;28;20032;-49
2022/07/22 04:41:05;;;;;;;6.05;1.70;;;16.80;99.90;;;;;;5071659;28;20307;-52
2022/07/22 04:43:30;;;;;;;3.95;1.60;;;16.80;99.90;;;;;;5054758;28;20028;-55
2022/07/22 04:45:56;;;;;;;4.25;1.45;;;16.80;99.90;;;;;;5054481;28;20021;-52
2022/07/22 04:48:22;;;;;;;7.00;1.63;;;16.80;99.80;;;;;;5071995;28;20021;-54
2022/07/22 04:50:47;;;;;;;8.48;1.90;;;16.80;99.90;;;;;;5066812;28;20028;-51
2022/07/22 04:53:13;;;;;;;6.95;1.52;;;16.90;99.90;;;;;;5059286;28;20097;-51
2022/07/22 04:55:39;;;;;;;10.63;2.50;;;16.90;99.90;;;;;;5065577;28;20491;-47
2022/07/22 04:58:05;;;;;;;6.03;1.90;;;16.90;99.90;;;;;;5056885;28;20028;-48
2022/07/22 05:00:30;;;;;;;7.78;1.92;;;17.00;99.90;;;;;;5072091;28;20025;-48
2022/07/22 05:02:56;;;;;;;9.05;1.88;;;17.00;99.70;;;;;;5071852;28;20451;-47
2022/07/22 05:05:22;;;;;;;8.07;1.67;;;17.00;99.40;;;;;;5071932;28;20035;-50
2022/07/22 05:07:48;;;;;;;7.50;1.73;;;17.10;99.50;;;;;;5070677;28;20078;-48
2022/07/22 05:10:14;;;;;;;5.25;1.90;;;17.10;99.60;;;;;;5053752;28;20035;-49
2022/07/22 05:12:39;;;;;;;5.15;1.50;;;17.00;99.50;;;;;;5071445;28;20017;-45
2022/07/22 05:15:06;;;;;;;5.25;1.75;;;17.10;99.60;;;;;;5081355;28;20098;-47
2022/07/22 05:17:32;;;;;;;7.63;1.83;;;17.10;99.50;;;;;;5079890;28;20068;-48
2022/07/22 05:19:57;;;;;;;10.27;1.85;;;17.20;99.60;;;;;;5073317;28;20056;-48
2022/07/22 05:22:23;;;;;;;4.50;1.30;;;17.30;99.40;;;;;;5081727;28;20028;-50
2022/07/22 05:24:49;;;;;;;4.82;1.42;;;17.40;99.40;;;;;;5076199;28;20021;-46
2022/07/22 05:27:14;;;;;;;6.43;1.70;;;17.50;99.00;;;;;;5077831;28;20028;-47
2022/07/22 05:29:40;;;;;;;4.57;1.42;;;17.50;98.70;;;;;;5075603;28;20537;-45
2022/07/22 05:32:06;;;;;;;9.00;1.60;;;17.70;99.00;;;;;;5073188;28;20067;-43
2022/07/22 05:34:31;;;;;;;7.68;1.60;;;17.70;98.40;;;;;;5079384;28;20039;-48
2022/07/22 05:36:57;;;;;;;5.57;1.65;;;17.70;99.00;;;;;;5081337;28;20517;-43
2022/07/22 05:39:23;;;;;;;8.95;1.55;;;17.80;98.20;;;;;;5077605;28;20081;-46
2022/07/22 05:41:48;;;;;;;3.58;1.45;;;17.70;98.30;;;;;;5075127;28;20475;-43
2022/07/22 05:44:14;;;;;;;7.47;1.88;;;17.70;98.40;;;;;;5071171;28;20486;-44
2022/07/22 05:46:40;;;;;;;5.95;1.30;;;17.80;98.30;;;;;;5052975;28;20020;-48
2022/07/22 05:49:07;;;;;;;5.95;1.45;;;17.90;98.60;;;;;;5053217;28;20036;-46
2022/07/22 05:51:34;;;;;;;5.85;1.85;;;17.90;98.30;;;;;;5071301;28;20024;-48
2022/07/22 05:54:02;;;;;;;6.63;1.70;;;17.90;98.10;;;;;;5070929;28;20032;-48
2022/07/22 05:56:27;;;;;;;8.20;1.42;;;18.00;98.00;;;;;;5070914;28;20033;-50
2022/07/22 05:58:55;;;;;;;6.78;1.63;;;18.20;97.90;;;;;;5071149;28;20202;-50
2022/07/22 06:01:22;;;;;;;5.75;1.80;;;18.40;97.70;;;;;;5059013;28;20025;-55
2022/07/22 06:03:48;;;;;;;5.80;1.55;;;18.80;96.60;;;;;;5056627;28;20059;-45
2022/07/22 06:06:13;;;;;;;7.03;1.70;;;19.10;95.80;;;;;;5066083;28;20060;-44
2022/07/22 06:08:39;;;;;;;4.70;1.20;;;19.20;95.50;;;;;;5060182;28;20485;-43
2022/07/22 06:11:05;;;;;;;9.32;1.85;;;19.40;95.00;;;;;;5070741;28;20507;-44
2022/07/22 06:13:31;;;;;;;7.03;1.65;;;19.40;94.90;;;;;;5070773;28;20479;-49
2022/07/22 06:15:57;;;;;;;6.35;1.70;;;19.40;95.20;;;;;;5070801;28;20087;-51
2022/07/22 06:18:23;;;;;;;5.90;1.80;;;19.20;95.40;;;;;;5070815;28;20017;-45
2022/07/22 06:20:49;;;;;;;6.38;1.90;;;19.00;95.90;;;;;;5068823;28;20035;-46
2022/07/22 06:23:14;;;;;;;9.05;2.00;;;18.90;96.00;;;;;;5070888;28;20104;-50
2022/07/22 06:25:40;;;;;;;9.07;1.83;;;18.90;96.30;;;;;;5052146;28;20024;-46
2022/07/22 06:28:06;;;;;;;5.22;1.27;;;18.90;96.30;;;;;;5070038;28;20426;-44
2022/07/22 06:30:32;;;;;;;5.38;1.40;;;19.40;95.80;;;;;;5070771;28;20715;-47
2022/07/22 06:32:57;;;;;;;5.55;1.50;;;19.70;95.00;;;;;;5070760;28;20036;-45
2022/07/22 06:35:26;;;;;;;7.50;1.70;;;20.00;94.30;;;;;;5069419;28;20028;-49
2022/07/22 06:37:52;;;;;;;4.45;1.30;;;20.90;93.50;;;;;;5054458;28;20541;-50
2022/07/22 06:40:18;;;;;;;7.68;1.88;;;21.60;92.10;;;;;;5066996;28;20028;-52
2022/07/22 06:42:44;;;;;;;5.35;1.45;;;21.60;91.60;;;;;;5059585;28;20122;-47
2022/07/22 06:45:10;;;;;;;6.85;1.60;;;21.80;90.80;;;;;;5070080;28;20020;-46
2022/07/22 06:47:36;;;;;;;6.90;1.50;;;21.90;90.50;;;;;;5072982;28;20055;-45
2022/07/22 06:50:06;;;;;;;8.50;1.55;;;21.60;90.80;;;;;;5073980;28;20032;-43
2022/07/22 06:52:32;;;;;;;4.32;1.50;;;21.50;91.20;;;;;;5075059;28;20020;-50
2022/07/22 06:54:58;;;;;;;6.63;2.17;;;20.80;91.90;;;;;;5081838;28;20475;-46
2022/07/22 06:57:23;;;;;;;6.32;1.70;;;20.60;92.70;;;;;;5070130;28;20032;-52
2022/07/22 06:59:50;;;;;;;8.75;1.80;;;20.20;93.10;;;;;;5070521;28;20121;-46
2022/07/22 07:02:15;;;;;;;7.75;1.60;;;20.00;94.00;;;;;;5077512;28;20025;-46
2022/07/22 07:04:41;;;;;;;7.07;1.80;;;19.90;94.60;;;;;;5069271;28;20012;-49
2022/07/22 07:07:08;;;;;;;8.02;2.20;;;19.70;94.70;;;;;;5069829;28;20433;-43
2022/07/22 07:09:35;;;;;;;5.25;1.70;;;19.70;94.90;;;;;;5069418;28;20028;-49
2022/07/22 07:12:00;;;;;;;5.85;1.92;;;19.30;95.60;;;;;;5076620;28;20108;-47
2022/07/22 07:14:26;;;;;;;8.52;1.90;;;19.20;96.30;;;;;;5081099;28;20119;-47
2022/07/22 07:16:52;;;;;;;6.35;2.10;;;19.20;96.10;;;;;;5071360;28;20180;-52
2022/07/22 07:19:19;;;;;;;6.72;1.85;;;19.50;95.70;;;;;;5060800;28;20033;-46
2022/07/22 07:21:45;;;;;;;6.22;1.92;;;19.70;95.60;;;;;;5080936;28;20024;-50
2022/07/22 07:24:11;;;;;;;9.93;1.70;;;20.20;94.50;;;;;;5068039;28;20390;-53
2022/07/22 07:26:37;;;;;;;7.63;1.63;;;20.50;93.50;;;;;;5062327;28;20392;-47
2022/07/22 07:29:03;;;;;;;8.70;2.08;;;20.90;93.80;;;;;;5080857;28;20025;-47
2022/07/22 07:31:29;;;;;;;5.20;1.30;;;21.50;92.10;;;;;;5082427;28;20032;-49
2022/07/22 07:33:55;;;;;;;6.05;1.60;;;21.80;90.90;;;;;;5069857;28;20111;-44
2022/07/22 07:36:21;;;;;;;8.73;2.25;;;21.70;91.10;;;;;;5073820;28;20513;-50
2022/07/22 07:38:46;;;;;;;6.78;2.00;;;22.00;91.00;;;;;;5076470;28;20021;-47
2022/07/22 07:41:12;;;;;;;7.13;1.80;;;21.80;90.80;;;;;;5081213;28;20447;-46
2022/07/22 07:43:38;;;;;;;5.82;1.70;;;21.50;91.30;;;;;;5071372;28;20017;-51
2022/07/22 07:46:04;;;;;;;7.05;2.13;;;20.80;91.90;;;;;;5067326;28;20098;-51
2022/07/22 07:48:30;;;;;;;5.65;1.40;;;20.60;92.50;;;;;;5071830;28;20028;-44
2022/07/22 07:50:56;;;;;;;4.82;1.90;;;20.50;92.90;;;;;;5053801;28;20990;-42
2022/07/22 07:53:21;;;;;;;4.95;1.70;;;20.50;93.30;;;;;;5065762;28;20055;-43
2022/07/22 07:55:47;;;;;;;7.10;1.67;;;20.90;92.20;;;;;;5069842;28;20040;-45
2022/07/22 07:58:13;;;;;;;7.10;1.65;;;21.00;92.20;;;;;;5069597;28;20082;-47
2022/07/22 08:00:41;;;;;;;5.07;1.92;;;21.10;91.90;;;;;;5072200;28;20032;-52
2022/07/22 08:03:06;;;;;;;5.47;1.83;;;20.80;92.20;;;;;;5071863;28;20021;-42
2022/07/22 08:05:32;;;;;;;7.35;2.17;;;20.40;92.60;;;;;;5067978;28;20051;-47
2022/07/22 08:07:58;;;;;;;8.10;1.90;;;20.60;93.60;;;;;;5071647;28;20479;-45
2022/07/22 08:10:24;;;;;;;9.15;2.20;;;20.60;92.90;;;;;;5071727;28;20096;-46
2022/07/22 08:12:50;;;;;;;5.38;1.60;;;20.60;93.20;;;;;;5071623;28;20012;-46
2022/07/22 08:15:16;;;;;;;4.90;1.80;;;20.80;93.10;;;;;;5071538;28;20099;-52
2022/07/22 08:17:42;;;;;;;7.57;1.77;;;21.40;93.90;;;;;;5072685;28;20066;-50
2022/07/22 08:20:08;;;;;;;6.68;2.05;;;21.00;91.10;;;;;;5071646;28;20020;-51
2022/07/22 08:22:34;;;;;;;7.78;2.17;;;21.10;91.20;;;;;;5068554;28;20108;-43
2022/07/22 08:25:00;;;;;;;6.53;1.70;;;20.90;91.20;;;;;;5067405;28;20142;-51
2022/07/22 08:27:26;;;;;;;6.05;1.80;;;20.90;91.70;;;;;;5060136;28;20433;-51
2022/07/22 08:29:52;;;;;;;6.25;1.98;;;21.20;91.40;;;;;;5079805;28;20033;-50
2022/07/22 08:32:18;;;;;;;5.50;1.90;;;21.40;91.10;;;;;;5074577;28;20024;-49
2022/07/22 08:34:44;;;;;;;4.43;1.90;;;21.70;90.40;;;;;;5081667;28;20024;-51
2022/07/22 08:37:10;;;;;;;7.10;1.90;;;21.60;89.40;;;;;;5065920;28;20399;-48
2022/07/22 08:39:35;;;;;;;5.75;1.77;;;21.80;89.90;;;;;;5058589;28;20036;-48
2022/07/22 08:42:01;;;;;;;5.40;1.65;;;22.70;88.90;;;;;;5078599;28;20060;-50
2022/07/22 08:44:33;;;;;;;4.68;1.63;;;24.30;82.60;;;;;;5077090;28;20125;-44
2022/07/22 08:47:00;;;;;;;6.80;2.10;;;23.90;80.50;;;;;;5074306;28;20040;-52
2022/07/22 08:49:26;;;;;;;6.32;1.67;;;24.30;81.80;;;;;;5070797;28;20013;-43
2022/07/22 08:51:52;;;;;;;7.30;1.88;;;24.90;79.00;;;;;;5074765;28;20043;-45
2022/07/22 08:54:18;;;;;;;5.15;1.67;;;24.20;79.60;;;;;;5070824;28;20032;-50
2022/07/22 08:56:48;;;;;;;4.55;1.92;;;24.10;79.60;;;;;;5071698;28;20051;-45
2022/07/22 08:59:14;;;;;;;4.78;1.70;;;24.00;80.80;;;;;;5070446;28;20774;-45
2022/07/22 09:02:02;;;;;;;3.72;1.58;;;24.80;77.70;;;;;;5063588;28;20084;-48
2022/07/22 09:04:31;;;;;;;7.60;1.90;;;25.90;74.60;;;;;;5064345;28;20048;-44
2022/07/22 09:06:57;;;;;;;5.32;1.70;;;26.20;76.80;;;;;;5069071;28;20052;-45
2022/07/22 09:09:33;;;;;;;4.60;1.77;;;25.70;73.60;;;;;;5067273;28;20020;-46
2022/07/22 09:12:09;;;;;;;7.75;1.73;;;25.70;74.00;;;;;;5068090;28;20455;-47
2022/07/22 09:14:48;;;;;;;6.03;1.90;;;25.00;74.80;;;;;;5068519;28;20166;-44
2022/07/22 09:17:35;;;;;;;4.40;1.70;;;25.30;75.20;;;;;;5051861;28;20025;-48
2022/07/22 09:20:05;;;;;;;3.35;1.60;;;25.30;75.10;;;;;;5069283;28;20021;-42
2022/07/22 09:22:37;;;;;;;3.25;1.40;;;25.60;74.50;;;;;;5070504;28;20119;-45
2022/07/22 09:25:25;;;;;;;4.60;1.88;;;25.30;73.70;;;;;;5073300;28;20028;-43
2022/07/22 09:27:53;;;;;;;5.85;1.85;;;25.60;73.50;;;;;;5065118;28;20108;-41
2022/07/22 09:30:26;;;;;;;7.35;2.03;;;25.60;73.30;;;;;;5064713;28;20120;-45
2022/07/22 09:32:56;;;;;;;5.82;1.73;;;25.10;72.00;;;;;;5069780;28;20388;-43
2022/07/22 09:35:24;;;;;;;4.90;1.75;;;25.10;75.20;;;;;;5075508;28;20042;-43
2022/07/22 09:38:03;;;;;;;4.60;1.83;;;24.60;74.40;;;;;;5081272;28;20469;-42
2022/07/22 09:40:31;;;;;;;6.22;1.92;;;24.70;75.30;;;;;;5060694;28;20506;-43
2022/07/22 09:42:59;;;;;;;4.73;1.67;;;25.10;75.10;;;;;;5065607;28;20035;-42
2022/07/22 09:45:27;;;;;;;5.40;1.70;;;25.30;73.50;;;;;;5058193;28;20299;-44
2022/07/22 09:47:58;;;;;;;5.28;2.13;;;26.70;74.40;;;;;;5068471;28;20350;-44
2022/07/22 09:50:25;;;;;;;5.78;2.00;;;27.10;68.40;;;;;;5064397;28;20047;-45
2022/07/22 09:52:54;;;;;;;7.93;1.90;;;27.50;70.30;;;;;;5077342;28;20020;-42
2022/07/22 09:55:22;;;;;;;4.50;1.60;;;27.30;66.30;;;;;;5071167;28;20043;-43
2022/07/22 09:57:49;;;;;;;6.28;2.00;;;27.20;67.10;;;;;;5067790;28;20067;-44
2022/07/22 10:00:17;;;;;;;6.18;2.10;;;26.60;67.30;;;;;;5067947;28;20020;-44
2022/07/22 10:02:58;;;;;;;6.85;1.67;;;26.10;69.00;;;;;;5080491;28;20094;-46
2022/07/22 10:05:30;;;;;;;5.22;1.95;;;25.90;70.20;;;;;;5072278;28;20115;-48
2022/07/22 10:07:57;;;;;;;8.95;2.10;;;25.80;70.00;;;;;;5072625;28;20031;-44
2022/07/22 10:10:25;;;;;;;7.65;2.00;;;25.30;71.50;;;;;;5055451;28;20020;-43
2022/07/22 10:12:54;;;;;;;8.03;1.90;;;25.10;71.70;;;;;;5071955;28;20035;-49
2022/07/22 10:15:21;;;;;;;5.38;2.13;;;24.80;73.40;;;;;;5061849;28;20513;-47
2022/07/22 10:17:49;;;;;;;6.53;1.80;;;25.10;73.90;;;;;;5075672;28;20510;-45
2022/07/22 10:20:18;;;;;;;3.88;1.65;;;25.50;73.70;;;;;;5057099;28;20028;-49
2022/07/22 10:22:54;;;;;;;4.85;2.00;;;25.50;71.90;;;;;;5081086;28;20024;-45
2022/07/22 10:25:24;;;;;;;6.55;1.73;;;25.80;71.70;;;;;;5068968;28;20024;-48
2022/07/22 10:27:57;;;;;;;6.07;1.80;;;25.40;70.80;;;;;;5077497;28;20501;-47
2022/07/22 10:30:25;;;;;;;5.22;1.40;;;25.30;73.00;;;;;;5062760;28;20060;-46
2022/07/22 10:33:13;;;;;;;4.47;1.83;;;26.10;72.70;;;;;;5066082;28;20028;-47
2022/07/22 10:35:57;;;;;;;6.95;2.17;;;25.80;70.70;;;;;;5063888;28;20403;-45
2022/07/22 10:38:23;;;;;;;7.72;2.08;;;24.90;71.30;;;;;;5064228;28;20029;-53
2022/07/22 10:40:55;;;;;;;7.95;2.08;;;24.40;74.30;;;;;;5066516;28;20029;-49
2022/07/22 10:43:22;;;;;;;9.90;2.00;;;24.00;75.20;;;;;;5065117;28;20376;-48
2022/07/22 10:46:08;;;;;;;5.90;2.17;;;23.60;75.70;;;;;;5067507;28;20100;-47
2022/07/22 10:48:36;;;;;;;4.90;2.28;;;23.50;77.80;;;;;;5065516;28;20029;-50
2022/07/22 10:51:20;;;;;;;4.43;1.90;;;23.20;79.40;;;;;;5068500;28;20025;-45
2022/07/22 10:53:52;;;;;;;5.80;2.28;;;22.90;79.70;;;;;;5069093;28;20760;-50
2022/07/22 12:36:51;;;;;;;3.53;1.90;;;22.10;95.80;;;;;;5065589;28;20391;-51
2022/07/22 12:39:19;;;;;;;4.00;1.90;;;22.10;94.00;;;;;;5051956;28;20029;-49
2022/07/22 12:41:54;;;;;;;4.10;1.63;;;22.00;93.60;;;;;;5039433;28;20030;-45
2022/07/22 12:44:23;;;;;;;6.65;2.47;;;21.80;93.90;;;;;;5040673;28;20026;-47
2022/07/22 12:46:52;;;;;;;3.72;1.70;;;22.00;93.50;;;;;;5048396;28;20040;-50
2022/07/22 12:49:20;;;;;;;4.97;2.10;;;22.10;94.50;;;;;;5047944;28;20032;-50
2022/07/22 12:52:06;;;;;;;4.78;2.30;;;22.10;95.00;;;;;;5048257;28;20033;-55
2022/07/22 12:54:33;;;;;;;6.80;1.90;;;22.20;93.90;;;;;;5048249;28;20034;-53
2022/07/22 12:56:59;;;;;;;4.57;1.67;;;22.40;93.80;;;;;;5048379;28;20116;-52
2022/07/22 12:59:25;;;;;;;3.50;1.70;;;22.50;93.80;;;;;;5047852;28;20021;-44
2022/07/22 13:01:50;;;;;;;4.28;1.90;;;22.50;93.30;;;;;;5048065;28;20132;-48
2022/07/22 13:04:16;;;;;;;3.53;1.92;;;22.60;92.90;;;;;;5052116;28;20021;-44
2022/07/22 13:06:42;;;;;;;3.03;1.70;;;22.50;93.50;;;;;;5055392;28;20448;-44
2022/07/22 13:09:07;;;;;;;5.47;1.52;;;22.30;92.20;;;;;;5047214;28;20384;-49
2022/07/22 13:11:39;;;;;;;5.60;1.95;;;22.30;92.10;;;;;;5048033;28;20036;-50
2022/07/22 13:14:05;;;;;;;4.22;1.73;;;22.00;91.10;;;;;;5047834;28;20017;-55
2022/07/22 13:16:32;;;;;;;4.70;1.90;;;22.10;92.10;;;;;;5047500;28;20030;-49
2022/07/22 13:18:58;;;;;;;5.53;2.08;;;22.00;90.80;;;;;;5047307;28;20391;-50
2022/07/22 13:21:24;;;;;;;4.85;2.00;;;21.90;91.40;;;;;;5047606;28;20029;-51
2022/07/22 13:23:49;;;;;;;4.63;1.83;;;21.90;92.40;;;;;;5055091;28;20495;-46
2022/07/22 13:26:15;;;;;;;5.90;1.95;;;21.90;92.10;;;;;;5059535;28;20028;-50
2022/07/22 13:28:41;;;;;;;6.75;2.38;;;21.90;93.00;;;;;;5064390;28;20111;-50
2022/07/22 13:31:08;;;;;;;6.55;2.33;;;21.90;93.40;;;;;;5034578;28;20060;-48
2022/07/22 13:33:33;;;;;;;5.70;2.25;;;21.90;93.70;;;;;;5045361;28;20021;-51
2022/07/22 13:35:59;;;;;;;6.10;2.17;;;21.90;93.30;;;;;;5043474;28;20099;-49
2022/07/22 13:38:25;;;;;;;5.25;1.88;;;21.90;94.00;;;;;;5047068;28;20064;-45
2022/07/22 13:40:51;;;;;;;5.35;1.60;;;21.90;94.20;;;;;;5047255;28;20072;-46
2022/07/22 13:43:21;;;;;;;7.85;2.13;;;22.00;93.10;;;;;;5047238;28;20480;-44
2022/07/22 13:45:46;;;;;;;4.28;1.90;;;22.00;93.30;;;;;;5047704;28;20034;-48
2022/07/22 13:48:12;;;;;;;4.00;1.65;;;22.10;95.50;;;;;;5023095;28;20026;-52
2022/07/22 13:50:38;;;;;;;4.68;1.55;;;22.30;93.70;;;;;;5039316;28;20539;-48
2022/07/22 13:53:03;;;;;;;5.07;1.70;;;22.40;93.70;;;;;;5046099;28;20470;-53
2022/07/22 13:55:30;;;;;;;5.13;1.75;;;22.50;92.20;;;;;;5044261;28;20080;-49
2022/07/22 13:57:57;;;;;;;4.82;1.88;;;22.60;94.10;;;;;;5043648;28;20108;-47
2022/07/22 14:00:23;;;;;;;6.85;2.40;;;22.70;93.60;;;;;;5036138;28;20544;-47
2022/07/22 14:02:49;;;;;;;3.80;1.80;;;22.80;94.20;;;;;;5048502;28;20074;-51
2022/07/22 14:05:15;;;;;;;5.03;2.17;;;23.00;94.30;;;;;;5041125;28;20026;-45
2022/07/22 14:07:42;;;;;;;5.30;2.08;;;23.20;94.20;;;;;;5045202;28;20051;-43
2022/07/22 14:10:08;;;;;;;4.43;2.10;;;23.30;93.50;;;;;;5046457;28;20048;-50
2022/07/22 14:12:33;;;;;;;7.15;2.10;;;23.40;93.50;;;;;;5041664;28;20032;-43
2022/07/22 14:14:59;;;;;;;5.78;2.00;;;23.30;93.10;;;;;;5044475;28;20176;-48
2022/07/22 14:17:25;;;;;;;4.63;1.77;;;23.30;94.20;;;;;;5041036;28;20036;-44
2022/07/22 14:19:50;;;;;;;5.65;2.30;;;23.20;94.10;;;;;;5044799;28;20032;-45
2022/07/22 14:22:16;;;;;;;3.88;1.80;;;23.10;93.20;;;;;;5037807;28;20475;-44
2022/07/22 14:24:42;;;;;;;6.22;2.20;;;23.00;93.20;;;;;;5048888;28;20031;-50